Time;durP1;ratioP1;P1;durP2;ratioP2;P2;SDS_P1;SDS_P2;PMS_P1;PMS_P2;Temp;Humidity;BMP_temperature;BMP_pressure;BME280_temperature;BME280_humidity;BME280_pressure;Samples;Min_cycle;Max_cycle;Signal;HPM_P1;HPM_P2
2022/01/30 00:02:14;;;;;;;15.40;2.90;;;6.50;99.90;;;;;;6276366;22;20012;-83
2022/01/30 00:04:39;;;;;;;12.98;2.42;;;6.40;99.90;;;;;;6276041;22;20027;-82
2022/01/30 00:07:05;;;;;;;14.13;2.65;;;6.30;99.90;;;;;;6277445;22;20011;-83
2022/01/30 00:09:34;;;;;;;21.20;3.50;;;6.20;99.90;;;;;;6276066;22;20016;-83
2022/01/30 00:12:02;;;;;;;18.38;2.78;;;6.20;99.90;;;;;;6275782;22;20381;-83
2022/01/30 00:14:32;;;;;;;21.80;4.68;;;6.20;99.90;;;;;;6275996;22;20015;-83
2022/01/30 00:17:04;;;;;;;19.73;3.67;;;6.30;99.90;;;;;;6275884;22;20443;-83
2022/01/30 00:19:42;;;;;;;18.52;3.63;;;6.30;99.90;;;;;;6276009;22;20035;-84
2022/01/30 00:25:06;;;;;;;20.95;4.38;;;6.30;99.90;;;;;;6214543;22;20016;-82
2022/01/30 00:27:44;;;;;;;14.23;2.17;;;6.40;99.90;;;;;;6275853;22;20015;-82
2022/01/30 00:30:13;;;;;;;20.02;3.50;;;6.40;99.90;;;;;;6275773;22;20023;-82
2022/01/30 00:32:38;;;;;;;23.00;5.60;;;6.40;99.90;;;;;;6275749;22;20012;-83
2022/01/30 00:35:04;;;;;;;31.48;6.57;;;6.50;99.90;;;;;;6275444;22;20043;-83
2022/01/30 00:37:30;;;;;;;27.58;4.85;;;6.40;99.90;;;;;;6274806;22;20034;-83
2022/01/30 00:39:56;;;;;;;27.70;6.80;;;6.40;99.90;;;;;;6276008;22;20011;-82
2022/01/30 00:42:22;;;;;;;32.67;5.18;;;6.40;99.90;;;;;;6275597;22;20091;-83
2022/01/30 00:44:48;;;;;;;22.58;5.25;;;6.50;99.90;;;;;;6275952;22;20380;-83
2022/01/30 00:47:14;;;;;;;25.15;4.15;;;6.50;99.90;;;;;;6275606;22;20050;-83
2022/01/30 00:49:46;;;;;;;22.48;5.45;;;6.50;99.90;;;;;;6275619;22;20064;-84
2022/01/30 00:52:17;;;;;;;20.48;3.65;;;6.50;99.90;;;;;;6275556;22;20020;-84
2022/01/30 00:54:43;;;;;;;32.55;4.72;;;6.50;99.90;;;;;;6275598;22;20011;-84
2022/01/30 00:57:09;;;;;;;21.77;4.72;;;6.60;99.90;;;;;;6275636;22;20051;-84
2022/01/30 00:59:35;;;;;;;25.90;6.20;;;6.60;99.90;;;;;;6275209;22;20016;-83
2022/01/30 01:02:01;;;;;;;18.52;4.38;;;6.60;99.90;;;;;;6275570;22;20016;-83
2022/01/30 01:04:27;;;;;;;23.40;4.60;;;6.70;99.90;;;;;;6275543;22;20115;-84
2022/01/30 01:06:53;;;;;;;19.50;4.38;;;6.70;99.90;;;;;;6275469;22;20074;-84
2022/01/30 01:09:22;;;;;;;26.00;5.57;;;6.70;99.90;;;;;;6275450;22;20017;-84
2022/01/30 01:12:30;;;;;;;28.55;5.20;;;6.70;99.90;;;;;;6274657;22;20020;-85
2022/01/30 01:23:36;;;;;;;15.50;3.60;;;6.40;99.90;;;;;;6275317;22;20015;-82
2022/01/30 01:26:02;;;;;;;19.50;3.83;;;6.40;99.90;;;;;;6275879;22;20095;-82
2022/01/30 01:28:28;;;;;;;17.63;3.58;;;6.40;99.90;;;;;;6277374;22;20051;-82
2022/01/30 01:30:54;;;;;;;31.05;5.93;;;6.40;99.90;;;;;;6275289;22;20016;-82
2022/01/30 01:33:23;;;;;;;27.23;4.45;;;6.40;99.90;;;;;;6275250;22;20489;-82
2022/01/30 01:35:49;;;;;;;27.38;4.38;;;6.40;99.90;;;;;;6275339;22;20087;-82
2022/01/30 01:38:15;;;;;;;25.05;5.30;;;6.50;99.90;;;;;;6275420;22;20039;-82
2022/01/30 01:40:51;;;;;;;27.98;5.43;;;6.50;99.90;;;;;;6275406;22;20065;-82
2022/01/30 01:43:18;;;;;;;35.60;5.72;;;6.50;99.90;;;;;;6275313;22;20027;-82
2022/01/30 01:45:47;;;;;;;31.90;5.53;;;6.60;99.90;;;;;;6275278;22;20008;-82
2022/01/30 01:48:14;;;;;;;27.15;4.15;;;6.70;99.90;;;;;;6275288;22;20011;-82
2022/01/30 01:50:45;;;;;;;24.00;5.38;;;6.80;99.90;;;;;;6275248;22;20016;-82
2022/01/30 01:53:14;;;;;;;32.50;6.85;;;6.90;99.90;;;;;;6275343;22;20023;-82
2022/01/30 01:55:44;;;;;;;22.10;4.95;;;6.90;99.90;;;;;;6275295;22;20015;-81
2022/01/30 01:58:09;;;;;;;18.80;4.15;;;6.80;99.90;;;;;;6249615;22;20509;-81
2022/01/30 02:00:36;;;;;;;14.43;3.47;;;6.70;99.90;;;;;;6275277;22;20019;-81
2022/01/30 02:03:02;;;;;;;17.13;3.42;;;6.50;99.90;;;;;;6275217;22;20016;-81
2022/01/30 02:05:33;;;;;;;22.00;3.83;;;6.50;99.90;;;;;;6275212;22;20012;-82
2022/01/30 02:25:01;;;;;;;33.70;7.72;;;6.40;99.90;;;;;;6278887;22;20015;-81
2022/01/30 02:27:21;;;;;;;28.42;6.43;;;6.50;99.90;;;;;;6270921;22;20106;-81
2022/01/30 02:29:47;;;;;;;36.05;7.30;;;6.60;99.90;;;;;;6277040;22;20018;-81
2022/01/30 02:32:13;;;;;;;31.02;8.38;;;6.70;99.90;;;;;;6276837;22;20020;-81
2022/01/30 02:34:39;;;;;;;33.88;6.53;;;6.70;99.90;;;;;;6276986;22;20334;-81
2022/01/30 02:37:05;;;;;;;30.73;6.13;;;6.70;99.90;;;;;;6276799;22;20073;-81
2022/01/30 02:39:34;;;;;;;24.85;5.97;;;6.70;99.90;;;;;;6276856;22;20039;-82
2022/01/30 02:42:00;;;;;;;35.63;6.75;;;6.70;99.90;;;;;;6276790;22;20062;-82
2022/01/30 02:44:36;;;;;;;26.42;5.13;;;6.70;99.90;;;;;;6276876;22;20074;-81
2022/01/30 02:47:08;;;;;;;23.75;4.93;;;6.70;99.90;;;;;;6276888;22;20501;-82
2022/01/30 02:49:44;;;;;;;19.92;5.85;;;6.70;99.90;;;;;;6277142;22;20014;-82
2022/01/30 02:53:04;;;;;;;16.52;4.93;;;6.70;99.90;;;;;;6276665;22;20011;-84
2022/01/30 02:55:29;;;;;;;19.77;5.85;;;6.80;99.90;;;;;;6258279;22;20012;-83
2022/01/30 02:57:56;;;;;;;19.73;3.83;;;6.70;99.90;;;;;;6277076;22;20016;-83
2022/01/30 03:00:21;;;;;;;23.95;5.30;;;6.80;99.90;;;;;;6276615;22;20019;-83
2022/01/30 03:02:47;;;;;;;22.95;5.45;;;6.80;99.90;;;;;;6276637;22;20016;-83
2022/01/30 03:05:13;;;;;;;23.80;4.78;;;6.90;99.90;;;;;;6276699;22;20343;-82
2022/01/30 03:07:39;;;;;;;35.85;5.55;;;6.90;99.90;;;;;;6276661;22;20102;-82
2022/01/30 03:10:05;;;;;;;37.67;6.55;;;6.80;99.90;;;;;;6276585;22;20031;-82
2022/01/30 03:12:31;;;;;;;30.00;7.10;;;6.80;99.90;;;;;;6276492;22;20020;-83
2022/01/30 03:14:56;;;;;;;34.50;7.32;;;6.80;99.90;;;;;;6276561;22;20081;-83
2022/01/30 03:17:22;;;;;;;31.05;5.47;;;6.80;99.90;;;;;;6276553;22;20020;-82
2022/01/30 03:19:48;;;;;;;38.70;6.43;;;6.90;99.90;;;;;;6276483;22;20019;-82
2022/01/30 03:22:14;;;;;;;32.38;6.60;;;6.80;99.90;;;;;;6275833;22;20019;-82
2022/01/30 03:24:40;;;;;;;30.27;7.53;;;6.90;99.90;;;;;;6276370;22;20047;-82
2022/01/30 03:27:09;;;;;;;30.55;6.93;;;6.90;99.90;;;;;;6276455;22;20022;-82
2022/01/30 03:29:37;;;;;;;28.75;6.85;;;6.90;99.90;;;;;;6276401;22;20022;-82
2022/01/30 03:32:03;;;;;;;31.88;7.28;;;7.00;99.90;;;;;;6276212;22;20016;-82
2022/01/30 03:34:29;;;;;;;26.00;4.88;;;7.00;99.90;;;;;;6276585;22;20015;-82
2022/01/30 03:36:54;;;;;;;30.42;6.65;;;7.00;99.90;;;;;;6276302;22;20019;-82
2022/01/30 03:39:20;;;;;;;26.70;6.28;;;7.00;99.90;;;;;;6276318;22;20058;-83
2022/01/30 03:41:46;;;;;;;20.17;3.63;;;7.00;99.90;;;;;;6276266;22;20436;-85
2022/01/30 03:44:11;;;;;;;30.35;5.50;;;6.80;99.90;;;;;;6276160;22;20426;-85
2022/01/30 03:46:40;;;;;;;26.15;5.18;;;6.60;99.90;;;;;;6276191;22;20019;-85
2022/01/30 03:49:05;;;;;;;33.40;6.82;;;6.60;99.90;;;;;;6276155;22;20048;-85
2022/01/30 03:51:31;;;;;;;32.00;7.40;;;6.60;99.90;;;;;;6276079;22;20023;-85
2022/01/30 03:53:57;;;;;;;32.88;6.30;;;6.60;99.90;;;;;;6276142;22;20138;-85
2022/01/30 03:56:22;;;;;;;39.67;6.72;;;6.70;99.90;;;;;;6276129;22;20122;-85
2022/01/30 03:58:48;;;;;;;29.45;7.25;;;6.70;99.90;;;;;;6276060;22;20020;-85
2022/01/30 04:01:13;;;;;;;36.15;8.15;;;6.70;99.90;;;;;;6276754;22;20387;-85
2022/01/30 04:03:39;;;;;;;37.95;8.13;;;6.70;99.90;;;;;;6276092;22;20019;-86
2022/01/30 04:06:06;;;;;;;39.22;7.18;;;6.70;99.90;;;;;;6276028;22;20011;-85
2022/01/30 04:08:32;;;;;;;32.35;6.75;;;6.80;99.90;;;;;;6275982;22;20099;-85
2022/01/30 04:10:58;;;;;;;33.38;6.50;;;6.70;99.90;;;;;;6277746;22;20495;-86
2022/01/30 04:13:24;;;;;;;27.77;6.85;;;6.70;99.90;;;;;;6275878;22;20051;-84
2022/01/30 04:15:50;;;;;;;31.02;5.40;;;6.70;99.90;;;;;;6277823;22;20065;-84
2022/01/30 04:18:16;;;;;;;31.67;6.72;;;6.70;99.90;;;;;;6275724;22;20026;-85
2022/01/30 04:20:42;;;;;;;34.30;7.10;;;6.70;99.90;;;;;;6275952;22;20467;-85
2022/01/30 04:23:07;;;;;;;31.65;5.20;;;6.80;99.90;;;;;;6275615;22;20099;-85
2022/01/30 04:25:33;;;;;;;32.67;6.55;;;6.80;99.90;;;;;;6275869;22;20055;-85
2022/01/30 04:27:59;;;;;;;34.05;6.57;;;6.80;99.90;;;;;;6275842;22;20011;-85
2022/01/30 04:30:25;;;;;;;37.08;6.93;;;6.80;99.90;;;;;;6275673;22;20015;-85
2022/01/30 04:32:51;;;;;;;28.52;7.82;;;6.90;99.90;;;;;;6276373;22;20432;-85
2022/01/30 04:35:23;;;;;;;18.95;3.72;;;6.90;99.90;;;;;;6275764;22;20321;-85
2022/01/30 04:41:04;;;;;;;38.22;7.25;;;6.90;99.90;;;;;;6275746;22;20027;-84
2022/01/30 04:55:29;;;;;;;31.30;6.47;;;6.80;99.90;;;;;;6275812;22;20020;-86
2022/01/30 04:57:50;;;;;;;38.28;7.28;;;6.80;99.90;;;;;;6275353;22;20020;-86
2022/01/30 05:08:02;;;;;;;24.98;5.10;;;6.70;99.90;;;;;;6275551;22;20023;-85
2022/01/30 05:10:28;;;;;;;28.10;7.35;;;6.70;99.90;;;;;;6275453;22;20020;-86
2022/01/30 05:12:56;;;;;;;33.40;7.60;;;6.70;99.90;;;;;;6275488;22;20046;-86
2022/01/30 05:15:23;;;;;;;32.28;7.53;;;6.70;99.90;;;;;;6275484;22;20026;-86
2022/01/30 05:17:49;;;;;;;33.95;7.50;;;6.70;99.90;;;;;;6275846;22;20055;-85
2022/01/30 05:20:15;;;;;;;33.50;9.77;;;6.70;99.90;;;;;;6275488;22;20015;-85
2022/01/30 05:22:41;;;;;;;39.05;8.88;;;6.80;99.90;;;;;;6275378;22;20481;-86
2022/01/30 05:25:08;;;;;;;25.63;7.30;;;6.80;99.90;;;;;;6275469;22;20024;-87
2022/01/30 05:27:34;;;;;;;33.10;6.20;;;6.80;99.90;;;;;;6275442;22;20399;-86
2022/01/30 05:30:00;;;;;;;34.63;6.15;;;6.80;99.90;;;;;;6275323;22;20027;-86
2022/01/30 05:32:26;;;;;;;38.75;7.03;;;6.80;99.90;;;;;;6275296;22;20019;-86
2022/01/30 05:34:52;;;;;;;32.65;5.72;;;6.80;99.90;;;;;;6275324;22;20095;-86
2022/01/30 05:37:20;;;;;;;32.13;6.53;;;6.70;99.90;;;;;;6275337;22;20347;-86
2022/01/30 05:39:46;;;;;;;30.10;6.03;;;6.80;99.90;;;;;;6275368;22;20015;-86
2022/01/30 05:42:13;;;;;;;19.58;5.05;;;6.70;99.90;;;;;;6275287;22;20094;-87
2022/01/30 05:44:58;;;;;;;25.35;5.78;;;6.70;99.90;;;;;;6275368;22;20084;-87
2022/01/30 05:47:31;;;;;;;37.88;9.50;;;6.70;99.90;;;;;;6277070;22;20065;-87
2022/01/30 05:49:57;;;;;;;37.03;6.97;;;6.70;99.90;;;;;;6277414;22;20012;-87
2022/01/30 05:52:24;;;;;;;29.75;7.32;;;6.80;99.90;;;;;;6277180;22;20026;-88
2022/01/30 05:54:50;;;;;;;31.80;8.43;;;6.70;99.90;;;;;;6277852;22;20015;-87
2022/01/30 05:57:16;;;;;;;27.98;5.72;;;6.70;99.90;;;;;;6277351;22;20019;-87
2022/01/30 05:59:41;;;;;;;22.98;4.97;;;6.70;99.90;;;;;;6277221;22;20019;-86
2022/01/30 06:02:09;;;;;;;30.58;6.20;;;6.70;99.90;;;;;;6277280;22;20012;-88
2022/01/30 06:04:38;;;;;;;26.02;5.40;;;6.70;99.90;;;;;;6277209;22;20027;-88
2022/01/30 06:07:21;;;;;;;34.65;6.28;;;6.70;99.90;;;;;;6277267;22;20012;-86
2022/01/30 06:09:46;;;;;;;37.83;8.20;;;6.70;99.90;;;;;;6277412;22;20012;-86
2022/01/30 06:12:12;;;;;;;29.58;6.05;;;6.60;99.90;;;;;;6277179;22;20161;-86
2022/01/30 06:14:38;;;;;;;28.77;4.88;;;6.70;99.90;;;;;;6277503;22;20557;-86
2022/01/30 06:17:04;;;;;;;26.95;5.57;;;6.60;99.90;;;;;;6277126;22;20512;-86
2022/01/30 06:19:37;;;;;;;25.05;4.40;;;6.60;99.90;;;;;;6277015;22;20019;-86
2022/01/30 06:22:03;;;;;;;37.10;8.38;;;6.70;99.90;;;;;;6276858;22;20051;-86
2022/01/30 06:24:29;;;;;;;31.48;5.28;;;6.70;99.90;;;;;;6277105;22;20024;-86
2022/01/30 06:26:54;;;;;;;25.67;6.05;;;6.70;99.90;;;;;;6277321;22;20038;-86
2022/01/30 06:29:20;;;;;;;23.45;6.40;;;6.80;99.90;;;;;;6276981;22;20020;-86
2022/01/30 06:31:46;;;;;;;41.55;6.82;;;6.70;99.90;;;;;;6278464;22;20098;-88
2022/01/30 06:34:12;;;;;;;30.95;6.88;;;6.70;99.90;;;;;;6276851;22;20020;-87
2022/01/30 06:36:37;;;;;;;39.05;6.78;;;6.70;99.90;;;;;;6278445;22;20455;-85
2022/01/30 06:39:03;;;;;;;37.03;8.18;;;6.80;99.90;;;;;;6278211;22;20443;-87
2022/01/30 06:41:50;;;;;;;34.30;7.32;;;6.80;99.90;;;;;;6270251;22;20062;-85
2022/01/30 06:44:16;;;;;;;21.80;5.90;;;6.70;99.90;;;;;;6251324;22;20023;-86
2022/01/30 06:46:41;;;;;;;22.15;5.40;;;6.80;99.90;;;;;;6277627;22;20484;-86
2022/01/30 06:49:07;;;;;;;36.35;6.70;;;6.80;99.90;;;;;;6278709;22;20432;-85
2022/01/30 06:51:42;;;;;;;32.25;5.60;;;6.70;99.90;;;;;;6276662;22;20026;-86
2022/01/30 06:54:35;;;;;;;40.45;7.65;;;6.70;99.90;;;;;;6276798;22;20016;-87
2022/01/30 06:57:01;;;;;;;30.65;6.25;;;6.70;99.90;;;;;;6275183;22;20016;-83
2022/01/30 06:59:26;;;;;;;32.63;5.93;;;6.70;99.90;;;;;;6276254;22;20020;-85
2022/01/30 07:01:52;;;;;;;23.70;5.45;;;6.70;99.90;;;;;;6278288;22;20023;-84
2022/01/30 07:04:19;;;;;;;23.13;6.30;;;6.60;99.90;;;;;;6276388;22;20453;-84
2022/01/30 07:06:45;;;;;;;16.10;4.03;;;6.60;99.90;;;;;;6278610;22;20054;-85
2022/01/30 07:09:11;;;;;;;16.88;2.60;;;6.60;99.90;;;;;;6276409;22;20016;-85
2022/01/30 07:11:37;;;;;;;27.73;6.22;;;6.60;99.90;;;;;;6276196;22;20026;-85
2022/01/30 07:14:02;;;;;;;20.95;5.32;;;6.50;99.90;;;;;;6278146;22;20095;-85
2022/01/30 07:16:28;;;;;;;24.23;5.53;;;6.50;99.90;;;;;;6276152;22;20351;-83
2022/01/30 07:18:54;;;;;;;25.42;5.18;;;6.50;99.90;;;;;;6277898;22;20012;-82
2022/01/30 07:21:25;;;;;;;16.45;4.85;;;6.60;99.90;;;;;;6275793;22;20043;-84
2022/01/30 07:23:51;;;;;;;28.50;6.22;;;6.50;99.90;;;;;;6274761;22;20016;-83
2022/01/30 07:26:19;;;;;;;23.10;4.47;;;6.50;99.90;;;;;;6275788;22;20024;-85
2022/01/30 07:28:45;;;;;;;26.52;4.72;;;6.40;99.90;;;;;;6276141;22;20439;-83
2022/01/30 07:31:11;;;;;;;28.23;4.07;;;6.40;99.90;;;;;;6276018;22;20023;-81
2022/01/30 07:33:40;;;;;;;22.77;5.32;;;6.40;99.90;;;;;;6275946;22;20406;-82
2022/01/30 07:36:06;;;;;;;22.73;5.32;;;6.40;99.90;;;;;;6276092;22;20050;-82
2022/01/30 07:38:32;;;;;;;25.90;4.07;;;6.40;99.90;;;;;;6276019;22;20117;-83
2022/01/30 07:40:58;;;;;;;23.08;4.85;;;6.40;99.90;;;;;;6275929;22;20051;-85
2022/01/30 07:43:24;;;;;;;27.92;5.32;;;6.40;99.90;;;;;;6275898;22;20161;-83
2022/01/30 07:45:49;;;;;;;24.08;5.32;;;6.50;99.90;;;;;;6275881;22;20012;-83
2022/01/30 07:48:15;;;;;;;25.30;4.63;;;6.40;99.90;;;;;;6276116;22;20019;-83
2022/01/30 07:50:41;;;;;;;21.50;6.57;;;6.40;99.90;;;;;;6275808;22;20099;-84
2022/01/30 07:53:07;;;;;;;37.95;6.45;;;6.40;99.90;;;;;;6275634;22;20366;-82
2022/01/30 07:55:33;;;;;;;22.90;4.20;;;6.40;99.90;;;;;;6275491;22;20474;-81
2022/01/30 07:57:59;;;;;;;22.85;5.13;;;6.40;99.90;;;;;;6277689;22;20096;-82
2022/01/30 08:00:35;;;;;;;20.83;4.30;;;6.40;99.90;;;;;;6277416;22;20047;-85
2022/01/30 08:03:01;;;;;;;28.60;6.13;;;6.40;99.90;;;;;;6275805;22;20095;-83
2022/01/30 08:05:26;;;;;;;26.58;4.68;;;6.40;99.90;;;;;;6275768;22;20059;-84
2022/01/30 08:07:52;;;;;;;21.70;4.65;;;6.40;99.90;;;;;;6275887;22;20016;-84
2022/01/30 08:10:18;;;;;;;26.77;5.72;;;6.40;99.90;;;;;;6274293;22;20074;-82
2022/01/30 08:12:43;;;;;;;25.02;5.00;;;6.40;99.90;;;;;;6275483;22;20339;-84
2022/01/30 08:15:12;;;;;;;28.60;4.70;;;6.40;99.90;;;;;;6275438;22;20069;-83
2022/01/30 08:17:38;;;;;;;18.08;3.60;;;6.40;99.90;;;;;;6275154;22;20091;-82
2022/01/30 08:20:06;;;;;;;31.40;7.00;;;6.50;99.90;;;;;;6275698;22;20019;-85
2022/01/30 08:22:33;;;;;;;36.95;5.93;;;6.50;99.90;;;;;;6274888;22;20025;-83
2022/01/30 08:24:59;;;;;;;28.00;5.22;;;6.40;99.90;;;;;;6275530;22;20065;-83
2022/01/30 08:27:24;;;;;;;32.28;5.05;;;6.50;99.90;;;;;;6275055;22;20007;-82
2022/01/30 08:29:50;;;;;;;26.80;4.85;;;6.50;99.90;;;;;;6275324;22;20015;-83
2022/01/30 08:32:16;;;;;;;28.30;6.97;;;6.50;99.90;;;;;;6274937;22;20150;-83
2022/01/30 08:34:42;;;;;;;22.83;4.97;;;6.40;99.90;;;;;;6275355;22;20020;-83
2022/01/30 08:37:07;;;;;;;28.70;4.75;;;6.50;99.90;;;;;;6275446;22;20447;-83
2022/01/30 08:39:34;;;;;;;27.08;5.32;;;6.50;99.90;;;;;;6274788;22;20439;-83
2022/01/30 08:42:00;;;;;;;32.55;6.63;;;6.50;99.90;;;;;;6275374;22;20019;-83
2022/01/30 08:44:26;;;;;;;24.70;5.38;;;6.50;99.90;;;;;;6275348;22;20065;-84
2022/01/30 08:46:51;;;;;;;24.58;4.93;;;6.60;99.90;;;;;;6275473;22;20016;-83
2022/01/30 08:49:17;;;;;;;21.40;4.72;;;6.60;99.90;;;;;;6275553;22;20023;-82
2022/01/30 08:51:42;;;;;;;25.77;5.60;;;6.60;99.90;;;;;;6275304;22;20022;-82
2022/01/30 08:54:08;;;;;;;31.70;4.40;;;6.60;99.90;;;;;;6275431;22;20343;-82
2022/01/30 08:56:34;;;;;;;33.08;6.30;;;6.60;99.90;;;;;;6276845;22;20024;-82
2022/01/30 08:58:59;;;;;;;21.80;4.80;;;6.60;99.90;;;;;;6275209;22;20018;-82
2022/01/30 09:01:30;;;;;;;20.95;6.13;;;6.70;99.90;;;;;;6274745;22;20012;-81
2022/01/30 09:03:56;;;;;;;33.47;6.25;;;6.80;99.90;;;;;;6275275;22;20020;-82
2022/01/30 09:06:21;;;;;;;28.95;5.70;;;6.80;99.90;;;;;;6275199;22;20023;-82
2022/01/30 09:08:47;;;;;;;14.40;2.88;;;6.80;99.90;;;;;;6275244;22;20016;-82
2022/01/30 09:11:13;;;;;;;31.17;6.30;;;6.80;99.90;;;;;;6274987;22;20024;-82
2022/01/30 09:13:38;;;;;;;29.33;6.53;;;6.80;99.90;;;;;;6275081;22;20027;-83
2022/01/30 09:16:04;;;;;;;27.38;5.53;;;6.80;99.90;;;;;;6275051;22;20324;-82
2022/01/30 09:18:30;;;;;;;19.65;3.33;;;6.80;99.90;;;;;;6275139;22;20023;-82
2022/01/30 09:20:56;;;;;;;13.82;2.97;;;6.80;99.90;;;;;;6274327;22;20454;-82
2022/01/30 09:23:25;;;;;;;36.97;5.72;;;6.80;99.90;;;;;;6274831;22;20023;-81
2022/01/30 09:25:51;;;;;;;27.92;4.85;;;6.90;99.90;;;;;;6274804;22;20023;-82
2022/01/30 09:28:16;;;;;;;30.60;4.63;;;6.90;99.90;;;;;;6274992;22;20012;-82
2022/01/30 09:30:42;;;;;;;30.35;5.00;;;6.90;99.90;;;;;;6275032;22;20023;-82
2022/01/30 09:33:08;;;;;;;23.83;4.15;;;6.80;99.90;;;;;;6274990;22;20394;-82
2022/01/30 09:35:33;;;;;;;27.10;4.13;;;6.90;99.90;;;;;;6275133;22;20044;-82
2022/01/30 09:37:59;;;;;;;35.33;5.22;;;7.00;99.90;;;;;;6275105;22;20022;-83
2022/01/30 09:40:25;;;;;;;28.30;4.70;;;7.00;99.90;;;;;;6274963;22;20357;-83
2022/01/30 09:42:51;;;;;;;37.50;6.38;;;7.00;99.90;;;;;;6274555;22;20047;-83
2022/01/30 09:45:20;;;;;;;22.67;5.63;;;7.10;99.90;;;;;;6274998;22;20051;-83
2022/01/30 09:47:47;;;;;;;36.60;6.75;;;7.20;99.90;;;;;;6274998;22;20016;-82
2022/01/30 09:50:16;;;;;;;32.60;6.25;;;7.20;99.90;;;;;;6274984;22;20019;-83
2022/01/30 09:52:41;;;;;;;28.45;5.05;;;7.20;99.90;;;;;;6274811;22;20020;-83
2022/01/30 09:55:11;;;;;;;32.50;5.28;;;7.10;99.90;;;;;;6274897;22;20062;-83
2022/01/30 09:57:37;;;;;;;34.08;6.07;;;7.10;99.90;;;;;;6274875;22;20340;-81
2022/01/30 10:00:10;;;;;;;35.42;6.22;;;7.00;99.90;;;;;;6273309;22;20043;-83
2022/01/30 10:02:39;;;;;;;30.45;5.97;;;7.00;99.90;;;;;;6275385;22;20074;-83
2022/01/30 10:05:06;;;;;;;36.80;6.82;;;7.00;99.90;;;;;;6274899;22;20351;-82
2022/01/30 10:11:32;;;;;;;25.30;4.63;;;7.00;99.90;;;;;;6266560;22;20030;-82
2022/01/30 10:14:10;;;;;;;26.65;5.55;;;7.10;99.90;;;;;;6274184;22;20015;-80
2022/01/30 10:16:48;;;;;;;32.90;5.53;;;7.10;99.90;;;;;;6275431;22;20039;-82
2022/01/30 10:19:23;;;;;;;24.75;5.15;;;7.20;99.90;;;;;;6274813;22;20022;-82
2022/01/30 10:22:08;;;;;;;29.67;6.00;;;7.10;99.90;;;;;;6274853;22;20091;-82
2022/01/30 10:24:38;;;;;;;25.67;5.05;;;7.10;99.90;;;;;;6274669;22;20011;-82
2022/01/30 10:27:20;;;;;;;24.90;4.63;;;7.20;99.90;;;;;;6274741;22;20047;-82
2022/01/30 10:29:58;;;;;;;25.67;3.03;;;7.20;99.90;;;;;;6274726;22;20012;-82
2022/01/30 10:32:26;;;;;;;35.50;5.28;;;7.30;99.90;;;;;;6275667;22;20062;-81
2022/01/30 10:35:07;;;;;;;22.65;4.63;;;7.30;99.90;;;;;;6276332;22;20015;-81
2022/01/30 10:37:36;;;;;;;36.50;6.07;;;7.30;99.90;;;;;;6276494;22;20020;-87
2022/01/30 10:40:17;;;;;;;32.30;5.72;;;7.30;99.90;;;;;;6276624;22;20098;-81
2022/01/30 10:42:46;;;;;;;48.42;6.97;;;7.50;99.90;;;;;;6276596;22;20018;-81
2022/01/30 10:45:19;;;;;;;33.90;6.80;;;7.50;99.90;;;;;;6276285;22;20378;-83
2022/01/30 10:47:46;;;;;;;36.00;5.55;;;7.40;99.90;;;;;;6276590;22;20015;-81
2022/01/30 10:50:20;;;;;;;32.67;5.70;;;7.30;99.90;;;;;;6276703;22;20059;-80
2022/01/30 10:52:56;;;;;;;28.38;7.03;;;7.40;99.90;;;;;;6276466;22;20081;-81
2022/01/30 10:55:33;;;;;;;35.38;6.50;;;7.40;99.90;;;;;;6276364;22;20525;-81
2022/01/30 10:58:03;;;;;;;26.70;5.50;;;7.50;99.90;;;;;;6276461;22;20081;-82
2022/01/30 11:00:48;;;;;;;25.52;4.90;;;7.50;99.90;;;;;;6276278;22;20431;-81
2022/01/30 11:03:35;;;;;;;24.83;4.85;;;7.50;99.90;;;;;;6275173;22;20447;-81
2022/01/30 11:06:01;;;;;;;30.70;5.28;;;7.60;99.90;;;;;;6276042;22;20470;-81
2022/01/30 11:08:32;;;;;;;29.73;5.35;;;7.50;99.90;;;;;;6276272;22;20026;-81
2022/01/30 11:11:05;;;;;;;40.35;8.20;;;7.50;99.90;;;;;;6275917;22;20552;-80
2022/01/30 11:13:48;;;;;;;19.40;5.25;;;7.60;99.90;;;;;;6278120;22;20073;-81
2022/01/30 11:19:00;;;;;;;44.78;8.27;;;7.60;99.90;;;;;;6276010;22;20505;-81
2022/01/30 11:21:29;;;;;;;22.10;4.95;;;7.60;99.90;;;;;;6276160;22;20020;-82
2022/01/30 11:23:57;;;;;;;34.00;6.70;;;7.70;99.90;;;;;;6275996;22;20019;-81
2022/01/30 11:26:23;;;;;;;24.13;4.75;;;7.70;99.90;;;;;;6277757;22;20082;-81
2022/01/30 11:28:49;;;;;;;31.17;6.05;;;7.70;99.90;;;;;;6276104;22;20016;-80
2022/01/30 11:31:16;;;;;;;32.67;5.88;;;7.70;99.90;;;;;;6275853;22;20312;-81
2022/01/30 11:33:44;;;;;;;25.75;4.93;;;7.80;99.90;;;;;;6275972;22;20475;-81
2022/01/30 11:36:11;;;;;;;34.53;7.20;;;7.90;99.90;;;;;;6276011;22;20086;-81
2022/01/30 11:38:37;;;;;;;29.83;6.05;;;7.90;99.90;;;;;;6276008;22;20091;-81
2022/01/30 11:41:12;;;;;;;31.45;4.30;;;7.70;99.90;;;;;;6275966;22;20055;-81
2022/01/30 11:44:01;;;;;;;23.15;3.95;;;7.70;99.90;;;;;;6275474;22;20012;-81
2022/01/30 11:46:26;;;;;;;28.38;4.90;;;7.60;99.90;;;;;;6275653;22;20432;-81
2022/01/30 11:49:14;;;;;;;25.85;5.43;;;7.60;99.90;;;;;;6275366;22;20062;-81
2022/01/30 11:51:53;;;;;;;13.82;3.05;;;7.50;99.90;;;;;;6277597;22;20019;-80
2022/01/30 11:54:42;;;;;;;13.77;3.22;;;7.40;99.90;;;;;;6277344;22;20470;-81
2022/01/30 11:57:20;;;;;;;24.45;3.88;;;7.50;99.90;;;;;;6275672;22;20020;-81
2022/01/30 11:59:50;;;;;;;30.73;5.57;;;7.50;99.90;;;;;;6275850;22;20043;-81
2022/01/30 12:02:31;;;;;;;21.00;5.38;;;7.60;99.90;;;;;;6275557;22;20466;-82
2022/01/30 12:05:04;;;;;;;31.27;5.65;;;7.60;99.90;;;;;;6275718;22;20085;-81
2022/01/30 12:07:48;;;;;;;24.27;5.60;;;7.60;99.90;;;;;;6277436;22;20015;-81
2022/01/30 12:10:25;;;;;;;22.27;4.97;;;7.80;99.90;;;;;;6275344;22;20034;-81
2022/01/30 12:12:59;;;;;;;29.45;5.68;;;7.80;99.90;;;;;;6275651;22;20023;-81
2022/01/30 12:15:45;;;;;;;28.85;5.32;;;7.90;99.90;;;;;;6275686;22;20347;-81
2022/01/30 12:18:19;;;;;;;20.48;4.10;;;8.00;99.90;;;;;;6275528;22;20451;-81
2022/01/30 12:20:57;;;;;;;23.77;5.05;;;7.90;99.90;;;;;;6275572;22;20034;-81
2022/01/30 12:23:28;;;;;;;17.92;3.78;;;8.10;99.90;;;;;;6275459;22;20327;-80
2022/01/30 12:26:06;;;;;;;23.52;4.05;;;8.10;99.90;;;;;;6275586;22;20434;-81
2022/01/30 12:28:51;;;;;;;24.38;4.32;;;8.10;99.90;;;;;;6275141;22;20058;-81
2022/01/30 12:31:34;;;;;;;28.88;5.45;;;7.90;99.90;;;;;;6275407;22;20454;-80
2022/01/30 12:34:16;;;;;;;30.98;6.45;;;7.90;99.90;;;;;;6275458;22;20016;-80
2022/01/30 12:36:55;;;;;;;27.27;4.90;;;7.80;99.90;;;;;;6275475;22;20014;-80
2022/01/30 12:39:23;;;;;;;23.90;5.45;;;7.70;99.90;;;;;;6275356;22;20094;-80
2022/01/30 12:41:50;;;;;;;24.73;4.22;;;7.70;99.90;;;;;;6275267;22;20015;-81
2022/01/30 12:44:19;;;;;;;27.45;5.47;;;7.60;99.90;;;;;;6277229;22;20023;-80
2022/01/30 12:46:48;;;;;;;20.08;5.47;;;7.50;99.90;;;;;;6275363;22;20070;-80
2022/01/30 12:49:28;;;;;;;30.20;4.88;;;7.40;99.90;;;;;;6275027;22;20012;-81
2022/01/30 12:51:56;;;;;;;25.33;5.13;;;7.40;99.90;;;;;;6275114;22;20020;-81
2022/01/30 12:54:27;;;;;;;29.98;4.93;;;7.30;99.90;;;;;;6275217;22;20016;-81
2022/01/30 12:56:54;;;;;;;20.83;3.63;;;7.40;99.90;;;;;;6274792;22;20043;-81
2022/01/30 12:59:23;;;;;;;33.67;6.35;;;7.50;99.90;;;;;;6275189;22;20440;-81
2022/01/30 13:01:50;;;;;;;15.77;3.65;;;7.50;99.90;;;;;;6275369;22;20024;-81
2022/01/30 13:04:18;;;;;;;25.05;4.47;;;7.60;99.90;;;;;;6274394;22;20335;-82
2022/01/30 13:06:49;;;;;;;24.13;5.07;;;7.50;99.90;;;;;;6275125;22;20447;-81
2022/01/30 13:09:25;;;;;;;25.50;4.22;;;7.50;99.90;;;;;;6273487;22;20070;-80
2022/01/30 13:11:52;;;;;;;14.60;3.13;;;7.50;99.90;;;;;;6273016;22;20439;-81
2022/01/30 13:14:18;;;;;;;20.20;4.50;;;7.50;99.90;;;;;;6274900;22;20012;-81
2022/01/30 13:16:45;;;;;;;21.00;5.20;;;7.50;99.90;;;;;;6275108;22;20020;-81
2022/01/30 13:19:13;;;;;;;32.58;4.78;;;7.50;99.90;;;;;;6274862;22;20016;-81
2022/01/30 13:21:45;;;;;;;25.38;4.68;;;7.50;99.90;;;;;;6275006;22;20016;-81
2022/01/30 13:24:16;;;;;;;32.55;7.93;;;7.50;99.90;;;;;;6275098;22;20024;-81
2022/01/30 13:26:43;;;;;;;25.90;4.72;;;7.40;99.90;;;;;;6275155;22;20509;-81
2022/01/30 13:29:14;;;;;;;36.50;5.38;;;7.40;99.90;;;;;;6275123;22;20101;-81
2022/01/30 13:31:41;;;;;;;28.65;5.22;;;7.50;99.90;;;;;;6275029;22;20094;-81
2022/01/30 13:34:12;;;;;;;25.23;4.80;;;7.40;99.90;;;;;;6274705;22;20089;-82
2022/01/30 13:36:39;;;;;;;30.40;4.60;;;7.30;99.90;;;;;;6274697;22;20044;-81
2022/01/30 13:39:08;;;;;;;29.40;5.60;;;7.30;99.90;;;;;;6274997;22;20011;-81
2022/01/30 13:41:44;;;;;;;33.63;6.07;;;7.20;99.90;;;;;;6276814;22;20023;-81
2022/01/30 13:44:23;;;;;;;33.90;6.20;;;7.20;99.90;;;;;;6275098;22;20015;-81
2022/01/30 13:46:58;;;;;;;29.20;6.10;;;7.20;99.90;;;;;;6275004;22;20053;-82
2022/01/30 13:49:30;;;;;;;32.00;4.93;;;7.20;99.90;;;;;;6274966;22;20016;-83
2022/01/30 13:52:09;;;;;;;22.58;4.63;;;7.20;99.90;;;;;;6274800;22;20055;-83
2022/01/30 13:54:39;;;;;;;32.88;8.90;;;7.30;99.90;;;;;;6275004;22;20019;-83
2022/01/30 13:57:10;;;;;;;48.95;7.07;;;7.30;99.90;;;;;;6274818;22;20011;-83